Aeroporto :
LOGIN :

Iscrizione | Disclaimer

   EN    FR    IT 

 










Sommario :    VFR   VFR Marginale   IFR   IFR Intensivo   IFR Molto Intensivo
Visibilità : 
Base nubi : 
>= 8 km
>= 3000ft
5 / 8 km
1000 / 3000 ft
1500m / 5 km
500 / 1000 ft
800 / 1500m
200 / 500 ft
< 800m
< 200 ft
Simboli :   Temporali  Nebbia  Neve Forte  Precipitazioni Forti  Vento > 20 kt
SIGMETs :   Varie  Temporali  Ghiacco  Turbolenza  Onda orograficha  Ceneri Vulcaniche






- Altitudine del aeroporto : 545 ft
- Codice IATA : PZY


LZPP - Piešťany

ULTIMO METAR :
  • 090900Z 17005KT 9999 OVC009 04/02 Q1009

METARs OBSOLETI :
  • 090830Z 16005KT 9999 OVC009 04/02 Q1009
  • 090800Z 17004KT 140V200 9999 OVC009 04/02 Q1009
  • 090730Z 17004KT 120V210 9999 OVC009 04/02 Q1009
  • 090700Z 15004KT 9999 OVC009 04/02 Q1009

TAF TAF LZPP
Valido dal 09 a 09 ore il 09 a 18 ore UTC


090800Z 0909/0918 16006KT 8000 OVC009
TEMPO 0909/0916 1200 -RA BR BKN004 OVC007



MetMap, La meteo Aeronautica in un colpo d'occhio ! - Copyright ORBIFLY Dicembre 2007 - Disclaimer

ORBIFLY MET'MAP TEAM :

Programmazione e sviluppo : Alexandra Zaïnal
Concezione : Baudouin d'Aumeries
Aiuto per la programmazione : Marc-Olivier Méhu
Supporto tecnico e logistico : Manuel Goepfert
Aiuto per la traduzione : Arnaldo La Scala

Contatto : metmap@orbifly.com




FONTI E CREDITI :

   NOAA